createdAt,value
2018-08-19T00:01:32.401Z,27.04
2018-08-19T00:03:58.362Z,27.17
2018-08-19T00:06:24.320Z,27.24
2018-08-19T00:08:50.263Z,27.06
2018-08-19T00:11:16.195Z,27.05
2018-08-19T00:13:45.465Z,26.88
2018-08-19T00:16:11.421Z,27.01
2018-08-19T00:18:37.421Z,26.96
2018-08-19T00:21:03.362Z,26.88
2018-08-19T00:23:29.310Z,26.89
2018-08-19T00:25:55.272Z,26.75
2018-08-19T00:28:21.210Z,26.60
2018-08-19T00:30:47.194Z,26.66
2018-08-19T00:33:13.136Z,26.93
2018-08-19T00:35:39.060Z,26.92
2018-08-19T00:38:05.018Z,26.72
2018-08-19T00:40:30.968Z,26.90
2018-08-19T00:42:56.911Z,26.85
2018-08-19T00:45:22.875Z,26.32
2018-08-19T00:47:48.811Z,26.34
2018-08-19T00:50:14.734Z,26.50
2018-08-19T00:52:40.662Z,26.61
2018-08-19T00:55:06.677Z,27.08
2018-08-19T00:57:32.626Z,26.75
2018-08-19T00:59:58.592Z,26.73
2018-08-19T01:02:24.549Z,26.68
2018-08-19T01:04:50.721Z,26.83
2018-08-19T01:07:16.675Z,26.95
2018-08-19T01:09:42.645Z,26.71
2018-08-19T01:12:08.604Z,26.60
2018-08-19T01:14:34.570Z,26.65
2018-08-19T01:17:00.509Z,26.65
2018-08-19T01:19:26.471Z,26.79
2018-08-19T01:21:52.443Z,26.59
2018-08-19T01:24:18.409Z,26.65
2018-08-19T01:26:44.348Z,26.44
2018-08-19T01:29:10.299Z,26.64
2018-08-19T01:31:36.255Z,26.67
2018-08-19T01:34:02.203Z,26.43
2018-08-19T01:36:28.172Z,26.38
2018-08-19T01:38:54.108Z,26.52
2018-08-19T01:41:20.066Z,26.69
2018-08-19T01:43:45.992Z,26.54
2018-08-19T01:46:11.934Z,26.28
2018-08-19T01:48:37.883Z,26.36
2018-08-19T01:51:03.870Z,26.56
2018-08-19T01:53:29.837Z,26.74
2018-08-19T01:55:55.787Z,26.69
2018-08-19T01:58:21.728Z,26.70
2018-08-19T02:00:47.679Z,26.72
2018-08-19T02:03:13.631Z,26.57
2018-08-19T02:05:39.572Z,26.59
2018-08-19T02:08:05.593Z,26.55
2018-08-19T02:10:31.547Z,26.50
2018-08-19T02:12:57.472Z,26.76
2018-08-19T02:15:23.411Z,26.56
2018-08-19T02:17:49.360Z,26.56
2018-08-19T02:20:15.297Z,26.47
2018-08-19T02:22:41.237Z,26.24
2018-08-19T02:25:07.191Z,26.17
2018-08-19T02:27:33.120Z,26.51
2018-08-19T02:29:59.048Z,26.47
2018-08-19T02:32:24.985Z,26.40
2018-08-19T02:34:50.915Z,26.44
2018-08-19T02:37:16.840Z,26.33
2018-08-19T02:39:42.832Z,26.45
2018-08-19T02:42:08.787Z,26.32
2018-08-19T02:44:34.756Z,26.46
2018-08-19T02:47:00.711Z,26.48
2018-08-19T02:49:26.639Z,26.40
2018-08-19T02:51:52.579Z,26.46
2018-08-19T02:54:18.522Z,26.32
2018-08-19T02:56:44.476Z,26.16
2018-08-19T02:59:10.447Z,26.34
2018-08-19T03:01:36.403Z,26.28
2018-08-19T03:04:02.332Z,26.38
2018-08-19T03:06:28.298Z,26.41
2018-08-19T03:08:54.226Z,26.18
2018-08-19T03:11:20.187Z,26.23
2018-08-19T03:13:46.128Z,26.23
2018-08-19T03:16:12.058Z,26.29
2018-08-19T03:18:38.015Z,26.22
2018-08-19T03:21:03.959Z,25.90
2018-08-19T03:23:29.912Z,25.98
2018-08-19T03:25:55.839Z,25.83
2018-08-19T03:28:21.799Z,25.95
2018-08-19T03:30:47.731Z,25.95
2018-08-19T03:33:13.709Z,26.05
2018-08-19T03:35:39.636Z,26.08
2018-08-19T03:38:05.595Z,26.04
2018-08-19T03:40:31.544Z,25.84
2018-08-19T03:42:57.488Z,25.78
2018-08-19T03:45:23.415Z,25.85
2018-08-19T03:47:49.377Z,25.77
2018-08-19T03:50:15.312Z,25.71
2018-08-19T03:52:41.265Z,25.77
2018-08-19T03:55:07.208Z,25.67
2018-08-19T03:57:33.521Z,25.77
2018-08-19T03:59:59.512Z,25.81
2018-08-19T04:02:25.479Z,25.64
2018-08-19T04:04:51.426Z,25.85
2018-08-19T04:07:17.432Z,25.75
2018-08-19T04:09:43.372Z,25.80
2018-08-19T04:12:09.319Z,25.66
2018-08-19T04:14:35.267Z,25.79
2018-08-19T04:17:01.250Z,25.75
2018-08-19T04:19:27.194Z,25.76
2018-08-19T04:21:53.127Z,25.81
2018-08-19T04:24:19.064Z,25.57
2018-08-19T04:26:45.008Z,25.61
2018-08-19T04:29:10.978Z,25.64
2018-08-19T04:31:36.951Z,25.86
2018-08-19T04:34:02.889Z,25.76
2018-08-19T04:36:28.809Z,25.70
2018-08-19T04:38:54.762Z,25.71
2018-08-19T04:41:20.713Z,25.77
2018-08-19T04:43:46.657Z,25.59
2018-08-19T04:46:12.638Z,25.79
2018-08-19T04:48:38.578Z,25.67
2018-08-19T04:51:04.514Z,25.58
2018-08-19T04:53:30.453Z,25.62
2018-08-19T04:55:56.376Z,25.87
2018-08-19T04:58:22.357Z,25.90
2018-08-19T05:00:48.313Z,26.03
2018-08-19T05:03:14.289Z,26.03
2018-08-19T05:05:40.234Z,26.07
2018-08-19T05:08:06.306Z,26.37
2018-08-19T05:10:32.213Z,26.21
2018-08-19T05:12:58.155Z,26.05
2018-08-19T05:15:24.133Z,26.48
2018-08-19T05:17:50.073Z,26.47
2018-08-19T05:20:16.035Z,26.46
2018-08-19T05:22:42.118Z,26.73
2018-08-19T05:25:08.027Z,26.61
2018-08-19T05:27:33.992Z,26.52
2018-08-19T05:29:59.947Z,26.65
2018-08-19T05:32:25.886Z,26.58
2018-08-19T05:34:51.852Z,26.83
2018-08-19T05:37:17.777Z,26.73
2018-08-19T05:39:43.776Z,26.85
2018-08-19T05:42:09.719Z,26.79
2018-08-19T05:44:35.716Z,26.37
2018-08-19T05:47:01.815Z,26.43
2018-08-19T05:49:27.729Z,26.91
2018-08-19T05:51:53.677Z,26.69
2018-08-19T05:54:19.645Z,27.07
2018-08-19T05:56:45.578Z,26.99
2018-08-19T05:59:11.544Z,27.34
2018-08-19T06:01:37.508Z,27.57
2018-08-19T06:04:03.468Z,27.63
2018-08-19T06:06:29.419Z,27.91
2018-08-19T06:08:55.388Z,27.77
2018-08-19T06:11:21.340Z,28.13
2018-08-19T06:13:47.288Z,27.97
2018-08-19T06:16:13.221Z,28.34
2018-08-19T06:18:39.161Z,28.46
2018-08-19T06:21:05.112Z,28.61
2018-08-19T06:23:31.050Z,28.77
2018-08-19T06:25:56.988Z,28.97
2018-08-19T06:28:22.972Z,29.23
2018-08-19T06:30:48.942Z,29.14
2018-08-19T06:33:14.897Z,28.73
2018-08-19T06:35:40.851Z,28.13
2018-08-19T06:38:06.815Z,28.26
2018-08-19T06:40:32.800Z,28.54
2018-08-19T06:42:58.750Z,29.06
2018-08-19T06:45:24.712Z,29.22
2018-08-19T06:47:50.656Z,29.64
2018-08-19T06:50:16.613Z,28.98
2018-08-19T06:52:42.540Z,29.45
2018-08-19T06:55:08.472Z,29.69
2018-08-19T06:57:34.401Z,29.03
2018-08-19T07:00:00.344Z,29.61
2018-08-19T07:02:26.289Z,29.86
2018-08-19T07:04:52.245Z,30.32
2018-08-19T07:07:18.188Z,29.99
2018-08-19T07:09:44.144Z,30.30
2018-08-19T07:12:10.088Z,30.28
2018-08-19T07:14:36.039Z,29.52
2018-08-19T07:17:02.011Z,29.73
2018-08-19T07:19:27.971Z,29.67
2018-08-19T07:21:53.925Z,29.77
2018-08-19T07:24:19.869Z,29.78
2018-08-19T07:26:45.796Z,29.68
2018-08-19T07:29:11.764Z,29.87
2018-08-19T07:31:38.059Z,30.14
2018-08-19T07:34:04.301Z,30.29
2018-08-19T07:36:30.255Z,30.49
2018-08-19T07:38:56.217Z,30.41
2018-08-19T07:41:22.182Z,30.62
2018-08-19T07:43:48.182Z,30.58
2018-08-19T07:46:14.164Z,30.59
2018-08-19T07:48:40.119Z,30.72
2018-08-19T07:51:07.084Z,30.81
2018-08-19T07:53:33.057Z,30.84
2018-08-19T07:55:59.060Z,30.92
2018-08-19T07:58:24.993Z,31.02
2018-08-19T08:00:50.962Z,31.05
2018-08-19T08:03:16.900Z,31.04
2018-08-19T08:05:42.888Z,30.82
2018-08-19T08:08:08.858Z,31.18
2018-08-19T08:10:34.819Z,31.23
2018-08-19T08:13:00.826Z,31.37
2018-08-19T08:15:26.786Z,31.39
2018-08-19T08:17:52.778Z,31.39
2018-08-19T08:20:18.749Z,31.48
2018-08-19T08:22:44.707Z,31.49
2018-08-19T08:25:10.659Z,31.59
2018-08-19T08:27:36.619Z,31.58
2018-08-19T08:30:02.613Z,31.58
2018-08-19T08:32:28.557Z,31.44
2018-08-19T08:34:54.520Z,31.61
2018-08-19T08:37:20.477Z,31.68
2018-08-19T08:39:46.428Z,31.64
2018-08-19T08:42:12.380Z,31.73
2018-08-19T08:44:38.335Z,31.61
2018-08-19T08:47:04.282Z,31.35
2018-08-19T08:49:30.357Z,31.09
2018-08-19T08:51:56.323Z,30.89
2018-08-19T08:54:22.346Z,31.10
2018-08-19T08:56:48.294Z,31.01
2018-08-19T08:59:14.248Z,30.68
2018-08-19T09:01:40.192Z,30.42
2018-08-19T09:04:06.150Z,30.41
2018-08-19T09:06:32.115Z,30.20
2018-08-19T09:08:58.083Z,30.17
2018-08-19T09:11:24.032Z,30.48
2018-08-19T09:13:49.982Z,30.57
2018-08-19T09:16:15.946Z,30.51
2018-08-19T09:18:41.924Z,30.64
2018-08-19T09:21:07.883Z,30.38
2018-08-19T09:23:33.859Z,30.18
2018-08-19T09:25:59.817Z,30.33
2018-08-19T09:28:25.825Z,29.98
2018-08-19T09:30:51.780Z,30.21
2018-08-19T09:33:17.743Z,29.98
2018-08-19T09:35:43.702Z,30.36
2018-08-19T09:38:09.665Z,30.18
2018-08-19T09:40:35.634Z,30.39
2018-08-19T09:43:01.619Z,30.65
2018-08-19T09:45:27.588Z,30.60
2018-08-19T09:47:53.700Z,30.35
2018-08-19T09:50:19.528Z,30.30
2018-08-19T09:52:45.515Z,30.25
2018-08-19T09:55:11.453Z,29.83
2018-08-19T09:57:37.448Z,30.31
2018-08-19T10:00:03.354Z,30.30
2018-08-19T10:02:29.330Z,29.97
2018-08-19T10:04:55.677Z,30.17
2018-08-19T10:07:21.664Z,29.98
2018-08-19T10:09:47.740Z,30.47
2018-08-19T10:12:13.685Z,30.70
2018-08-19T10:14:39.911Z,30.55
2018-08-19T10:17:05.897Z,30.48
2018-08-19T10:19:31.851Z,30.75
2018-08-19T10:21:57.795Z,30.90
2018-08-19T10:24:23.760Z,30.97
2018-08-19T10:26:49.718Z,30.96
2018-08-19T10:29:15.685Z,30.96
2018-08-19T10:31:41.624Z,30.87
2018-08-19T10:34:07.591Z,30.87
2018-08-19T10:36:33.545Z,30.80
2018-08-19T10:38:59.477Z,30.83
2018-08-19T10:41:25.400Z,30.93
2018-08-19T10:43:51.366Z,30.90
2018-08-19T10:46:17.493Z,30.84
2018-08-19T10:48:43.353Z,30.89
2018-08-19T10:51:09.289Z,30.99
2018-08-19T10:53:35.215Z,31.04
2018-08-19T10:56:01.188Z,31.05
2018-08-19T10:58:27.163Z,31.05
2018-08-19T11:00:53.129Z,31.06
2018-08-19T11:03:19.088Z,31.06
2018-08-19T11:05:45.056Z,31.05
2018-08-19T11:08:11.009Z,30.96
2018-08-19T11:10:36.945Z,30.88
2018-08-19T11:13:02.935Z,30.73
2018-08-19T11:15:28.920Z,30.90
2018-08-19T11:17:54.910Z,31.02
2018-08-19T11:20:20.848Z,30.77
2018-08-19T11:22:46.812Z,30.60
2018-08-19T11:25:12.795Z,30.65
2018-08-19T11:27:38.879Z,30.86
2018-08-19T11:30:04.773Z,30.94
2018-08-19T11:32:30.733Z,30.64
2018-08-19T11:34:56.669Z,30.65
2018-08-19T11:37:22.618Z,30.65
2018-08-19T11:39:48.581Z,30.49
2018-08-19T11:42:14.512Z,30.67
2018-08-19T11:44:40.474Z,30.31
2018-08-19T11:47:06.417Z,30.40
2018-08-19T11:49:32.382Z,30.47
2018-08-19T11:51:58.344Z,30.33
2018-08-19T11:54:24.289Z,30.63
2018-08-19T11:56:50.270Z,30.44
2018-08-19T11:59:16.285Z,30.56
2018-08-19T12:01:42.241Z,30.79
2018-08-19T12:04:08.300Z,30.87
2018-08-19T12:06:34.276Z,30.92
2018-08-19T12:09:00.231Z,30.94
2018-08-19T12:11:26.182Z,30.95
2018-08-19T12:13:52.142Z,30.87
2018-08-19T12:16:18.153Z,30.96
2018-08-19T12:18:44.133Z,31.01
2018-08-19T12:21:10.104Z,31.02
2018-08-19T12:23:36.039Z,31.05
2018-08-19T12:26:02.011Z,30.95
2018-08-19T12:28:28.051Z,30.98
2018-08-19T12:30:53.999Z,31.01
2018-08-19T12:33:19.931Z,31.02
2018-08-19T12:35:45.906Z,30.77
2018-08-19T12:38:11.841Z,30.82
2018-08-19T12:40:37.804Z,30.80
2018-08-19T12:43:03.747Z,30.67
2018-08-19T12:45:29.729Z,30.32
2018-08-19T12:47:55.673Z,30.25
2018-08-19T12:50:21.708Z,30.44
2018-08-19T12:52:47.569Z,30.53
2018-08-19T12:55:13.517Z,30.68
2018-08-19T12:57:39.461Z,30.71
2018-08-19T13:00:05.460Z,30.45
2018-08-19T13:02:31.893Z,30.56
2018-08-19T13:04:57.892Z,30.68
2018-08-19T13:07:23.838Z,30.79
2018-08-19T13:09:49.822Z,30.80
2018-08-19T13:12:15.814Z,30.45
2018-08-19T13:14:42.153Z,30.46
2018-08-19T13:17:08.089Z,30.16
2018-08-19T13:19:34.061Z,30.17
2018-08-19T13:22:00.044Z,30.57
2018-08-19T13:24:25.986Z,30.66
2018-08-19T13:26:51.968Z,30.93
2018-08-19T13:29:17.929Z,31.00
2018-08-19T13:31:43.904Z,31.05
2018-08-19T13:36:42.328Z,30.80
2018-08-19T13:39:08.281Z,30.93
2018-08-19T13:41:34.254Z,30.98
2018-08-19T13:44:00.212Z,30.98
2018-08-19T13:46:26.188Z,31.02
2018-08-19T13:48:52.135Z,31.02
2018-08-19T13:51:18.113Z,30.94
2018-08-19T13:53:44.109Z,30.96
2018-08-19T13:56:10.101Z,30.90
2018-08-19T13:58:36.086Z,30.99
2018-08-19T14:01:02.052Z,31.05
2018-08-19T14:03:28.023Z,31.15
2018-08-19T14:05:54.013Z,30.98
2018-08-19T14:08:19.989Z,30.76
2018-08-19T14:10:45.973Z,31.08
2018-08-19T14:13:11.969Z,31.16
2018-08-19T14:15:37.937Z,31.13
2018-08-19T14:18:03.905Z,31.14
2018-08-19T14:20:29.869Z,31.19
2018-08-19T14:22:55.815Z,31.25
2018-08-19T14:25:21.779Z,31.20
2018-08-19T14:27:47.754Z,31.25
2018-08-19T14:30:13.827Z,31.25
2018-08-19T14:32:39.686Z,31.22
2018-08-19T14:35:05.644Z,31.19
2018-08-19T14:37:31.606Z,31.28
2018-08-19T14:39:57.714Z,31.23
2018-08-19T14:42:23.696Z,31.30
2018-08-19T14:44:49.634Z,31.28
2018-08-19T14:47:15.609Z,31.29
2018-08-19T14:49:41.533Z,31.29
2018-08-19T14:52:07.511Z,31.30
2018-08-19T14:54:33.442Z,31.23
2018-08-19T14:56:59.508Z,31.22
2018-08-19T14:59:25.528Z,31.27
2018-08-19T15:01:51.661Z,31.30
2018-08-19T15:04:17.616Z,31.29
2018-08-19T15:06:43.557Z,31.30
2018-08-19T15:09:09.537Z,31.29
2018-08-19T15:11:35.494Z,31.32
2018-08-19T15:14:01.426Z,31.30
2018-08-19T15:16:27.445Z,31.32
2018-08-19T15:18:53.426Z,31.29
2018-08-19T15:21:19.395Z,31.32
2018-08-19T15:23:45.381Z,31.34
2018-08-19T15:26:11.321Z,31.31
2018-08-19T15:28:37.261Z,31.29
2018-08-19T15:31:03.224Z,31.07
2018-08-19T15:33:29.180Z,31.20
2018-08-19T15:35:55.114Z,31.27
2018-08-19T15:38:21.047Z,31.28
2018-08-19T15:40:47.049Z,31.29
2018-08-19T15:43:13.008Z,31.30
2018-08-19T15:45:38.996Z,31.28
2018-08-19T15:48:04.965Z,31.29
2018-08-19T15:50:31.010Z,31.24
2018-08-19T15:52:57.047Z,31.15
2018-08-19T15:55:23.042Z,31.10
2018-08-19T15:57:48.983Z,31.09
2018-08-19T16:00:14.944Z,31.09
2018-08-19T16:02:40.898Z,31.03
2018-08-19T16:05:06.857Z,31.10
2018-08-19T16:07:32.873Z,31.07
2018-08-19T16:09:58.814Z,31.05
2018-08-19T16:12:24.837Z,31.05
2018-08-19T16:14:50.790Z,31.05
2018-08-19T16:17:16.735Z,31.03
2018-08-19T16:19:42.685Z,31.06
2018-08-19T16:22:08.712Z,31.08
2018-08-19T16:24:34.749Z,31.06
2018-08-19T16:27:00.723Z,30.99
2018-08-19T16:29:26.760Z,31.00
2018-08-19T16:31:52.907Z,31.00
2018-08-19T16:34:18.832Z,31.02
2018-08-19T16:36:44.781Z,31.13
2018-08-19T16:39:10.761Z,31.23
2018-08-19T16:41:36.741Z,31.28
2018-08-19T16:44:02.710Z,31.29
2018-08-19T16:46:28.748Z,31.26
2018-08-19T16:48:54.764Z,31.15
2018-08-19T16:51:20.732Z,31.18
2018-08-19T16:53:46.691Z,31.12
2018-08-19T16:56:12.627Z,31.17
2018-08-19T16:58:38.588Z,31.18
2018-08-19T17:01:04.558Z,31.19
2018-08-19T17:03:30.510Z,31.19
2018-08-19T17:05:56.467Z,31.23
2018-08-19T17:08:22.395Z,31.25
2018-08-19T17:10:48.373Z,31.24
2018-08-19T17:13:14.336Z,31.21
2018-08-19T17:15:40.268Z,31.27
2018-08-19T17:18:06.196Z,31.30
2018-08-19T17:20:32.156Z,31.28
2018-08-19T17:22:58.087Z,31.29
2018-08-19T17:25:24.151Z,31.32
2018-08-19T17:27:50.088Z,31.26
2018-08-19T17:30:16.093Z,31.31
2018-08-19T17:32:42.093Z,31.36
2018-08-19T17:35:08.109Z,31.33
2018-08-19T17:37:34.067Z,31.34
2018-08-19T17:40:00.049Z,31.33
2018-08-19T17:42:26.042Z,31.36
2018-08-19T17:44:52.019Z,31.31
2018-08-19T17:47:17.960Z,31.32
2018-08-19T17:49:44.016Z,31.33
2018-08-19T17:52:10.023Z,31.36
2018-08-19T17:54:35.905Z,31.32
2018-08-19T17:57:01.909Z,31.34
2018-08-19T17:59:28.115Z,31.35
2018-08-19T18:01:53.986Z,31.32
2018-08-19T18:04:20.034Z,31.34
2018-08-19T18:06:45.983Z,31.32
2018-08-19T18:11:38.243Z,31.32
2018-08-19T18:14:04.221Z,31.33
2018-08-19T18:16:30.192Z,31.31
2018-08-19T18:18:56.163Z,31.30
2018-08-19T18:21:22.170Z,31.29
2018-08-19T18:23:48.125Z,31.28
2018-08-19T18:26:14.081Z,31.28
2018-08-19T18:28:40.099Z,31.27
2018-08-19T18:31:06.049Z,31.24
2018-08-19T18:33:32.044Z,31.21
2018-08-19T18:35:58.044Z,31.15
2018-08-19T18:38:24.157Z,31.13
2018-08-19T18:40:50.006Z,30.95
2018-08-19T18:43:15.967Z,30.84
2018-08-19T18:45:41.968Z,30.75
2018-08-19T18:48:08.094Z,30.71
2018-08-19T18:50:34.182Z,30.70
2018-08-19T18:53:00.343Z,30.65
2018-08-19T18:55:26.373Z,30.67
2018-08-19T18:57:52.328Z,30.65
2018-08-19T19:00:18.297Z,30.61
2018-08-19T19:02:44.377Z,30.61
2018-08-19T19:05:10.508Z,30.56
2018-08-19T19:07:36.556Z,30.52
2018-08-19T19:10:02.529Z,30.58
2018-08-19T19:12:28.489Z,30.47
2018-08-19T19:14:54.429Z,30.77
2018-08-19T19:17:20.374Z,30.72
2018-08-19T19:19:46.339Z,30.65
2018-08-19T19:22:12.347Z,30.65
2018-08-19T19:24:38.307Z,30.84
2018-08-19T19:27:04.282Z,30.76
2018-08-19T19:29:30.256Z,30.54
2018-08-19T19:31:56.201Z,30.50
2018-08-19T19:34:22.315Z,30.57
2018-08-19T19:36:48.135Z,30.50
2018-08-19T19:39:14.109Z,30.59
2018-08-19T19:41:40.059Z,30.77
2018-08-19T19:44:06.018Z,30.97
2018-08-19T19:46:32.004Z,30.89
2018-08-19T19:48:57.986Z,30.84
2018-08-19T19:51:23.972Z,30.75
2018-08-19T19:53:49.933Z,30.62
2018-08-19T19:56:16.300Z,30.83
2018-08-19T19:58:42.289Z,30.85
2018-08-19T20:01:08.319Z,30.94
2018-08-19T20:03:34.270Z,30.84
2018-08-19T20:06:00.228Z,30.91
2018-08-19T20:08:26.254Z,30.92
2018-08-19T20:10:52.212Z,30.83
2018-08-19T20:13:18.213Z,30.97
2018-08-19T20:15:44.184Z,30.82
2018-08-19T20:18:10.255Z,30.69
2018-08-19T20:20:36.320Z,30.72
2018-08-19T20:23:02.429Z,30.82
2018-08-19T20:25:28.558Z,30.71
2018-08-19T20:27:54.543Z,30.73
2018-08-19T20:30:20.575Z,30.51
2018-08-19T20:32:46.621Z,30.41
2018-08-19T20:35:12.686Z,30.31
2018-08-19T20:40:10.130Z,30.22
2018-08-19T20:42:36.166Z,30.44
2018-08-19T20:45:02.170Z,30.10
2018-08-19T20:47:28.197Z,29.95
2018-08-19T20:49:54.214Z,29.76
2018-08-19T20:52:20.263Z,29.79
2018-08-19T20:54:48.035Z,30.03
2018-08-19T20:57:15.939Z,29.83
2018-08-19T20:59:42.013Z,29.71
2018-08-19T21:02:08.033Z,29.67
2018-08-19T21:04:37.760Z,29.74
2018-08-19T21:07:06.929Z,29.75
2018-08-19T21:09:32.953Z,29.90
2018-08-19T21:11:58.962Z,29.89
2018-08-19T21:14:24.930Z,29.85
2018-08-19T21:16:50.974Z,29.83
2018-08-19T21:19:16.930Z,29.85
2018-08-19T21:21:42.861Z,29.71
2018-08-19T21:24:08.804Z,29.79
2018-08-19T21:26:34.737Z,29.53
2018-08-19T21:29:00.688Z,29.65
2018-08-19T21:31:26.612Z,29.49
2018-08-19T21:33:52.565Z,29.51
2018-08-19T21:36:18.501Z,29.74
2018-08-19T21:38:44.438Z,29.68
2018-08-19T21:41:10.366Z,29.55
2018-08-19T21:43:36.302Z,29.65
2018-08-19T21:46:02.245Z,29.78
2018-08-19T21:48:28.178Z,29.72
2018-08-19T21:50:54.097Z,29.57
2018-08-19T21:53:20.082Z,29.61
2018-08-19T21:55:46.020Z,29.37
2018-08-19T21:58:11.963Z,29.48
2018-08-19T22:00:37.905Z,29.64
2018-08-19T22:03:03.833Z,29.53
2018-08-19T22:05:29.792Z,29.18
2018-08-19T22:07:55.735Z,29.08
2018-08-19T22:10:21.684Z,29.13
2018-08-19T22:12:47.637Z,29.22
2018-08-19T22:15:13.585Z,29.45
2018-08-19T22:17:39.509Z,29.38
2018-08-19T22:20:05.475Z,29.10
2018-08-19T22:22:31.425Z,29.23
2018-08-19T22:24:57.400Z,29.31
2018-08-19T22:27:23.403Z,29.25
2018-08-19T22:29:49.339Z,29.28
2018-08-19T22:32:15.268Z,29.46
2018-08-19T22:34:41.240Z,29.31
2018-08-19T22:37:07.188Z,29.04
2018-08-19T22:39:33.143Z,29.41
2018-08-19T22:41:59.092Z,29.45
2018-08-19T22:44:25.067Z,29.34
2018-08-19T22:46:51.005Z,29.16
2018-08-19T22:49:16.966Z,29.23
2018-08-19T22:51:42.904Z,29.44
2018-08-19T22:54:08.856Z,29.33
2018-08-19T22:56:34.801Z,29.43
2018-08-19T22:59:00.752Z,29.36
2018-08-19T23:01:26.696Z,29.70
2018-08-19T23:03:52.620Z,29.28
2018-08-19T23:06:18.544Z,28.82
2018-08-19T23:08:44.490Z,28.88
2018-08-19T23:11:10.475Z,29.04
2018-08-19T23:13:36.435Z,29.09
2018-08-19T23:16:02.391Z,29.05
2018-08-19T23:18:28.342Z,29.16
2018-08-19T23:20:54.314Z,28.96
2018-08-19T23:23:20.264Z,29.26
2018-08-19T23:25:46.204Z,29.03
2018-08-19T23:28:12.153Z,28.68
2018-08-19T23:30:38.096Z,28.58
2018-08-19T23:33:04.021Z,28.44
2018-08-19T23:35:29.984Z,28.44
2018-08-19T23:37:55.926Z,28.52
2018-08-19T23:40:21.888Z,28.63
2018-08-19T23:42:47.832Z,28.67
2018-08-19T23:45:13.771Z,28.89
2018-08-19T23:47:39.701Z,28.76
2018-08-19T23:50:05.638Z,28.83
2018-08-19T23:52:31.580Z,28.62
2018-08-19T23:54:57.528Z,28.40
2018-08-19T23:57:23.455Z,28.43
2018-08-19T23:59:49.383Z,28.50
